sensor_id;sensor_type;location;lat;lon;timestamp;P1;durP1;ratioP1;P2;durP2;ratioP2
7519;SDS011;3801;48.876;10.184;2024-03-08T00:01:25;25.30;;;14.23;;
7519;SDS011;3801;48.876;10.184;2024-03-08T00:06:31;19.57;;;10.47;;
7519;SDS011;3801;48.876;10.184;2024-03-08T00:11:35;29.43;;;16.03;;
7519;SDS011;3801;48.876;10.184;2024-03-08T00:16:38;28.07;;;14.83;;
7519;SDS011;3801;48.876;10.184;2024-03-08T00:21:47;28.30;;;14.83;;
7519;SDS011;3801;48.876;10.184;2024-03-08T00:26:51;29.93;;;14.53;;
7519;SDS011;3801;48.876;10.184;2024-03-08T00:31:56;22.57;;;13.47;;
7519;SDS011;3801;48.876;10.184;2024-03-08T00:37:01;25.63;;;14.23;;
7519;SDS011;3801;48.876;10.184;2024-03-08T00:42:04;25.30;;;14.37;;
7519;SDS011;3801;48.876;10.184;2024-03-08T00:47:08;21.13;;;12.87;;
7519;SDS011;3801;48.876;10.184;2024-03-08T00:52:13;29.43;;;16.40;;
7519;SDS011;3801;48.876;10.184;2024-03-08T00:57:17;19.23;;;11.03;;
7519;SDS011;3801;48.876;10.184;2024-03-08T01:02:21;26.30;;;15.23;;
7519;SDS011;3801;48.876;10.184;2024-03-08T01:07:26;20.63;;;13.10;;
7519;SDS011;3801;48.876;10.184;2024-03-08T01:12:30;26.10;;;13.40;;
7519;SDS011;3801;48.876;10.184;2024-03-08T01:17:33;23.77;;;12.37;;
7519;SDS011;3801;48.876;10.184;2024-03-08T01:22:38;24.73;;;13.07;;
7519;SDS011;3801;48.876;10.184;2024-03-08T01:27:42;15.43;;;9.03;;
7519;SDS011;3801;48.876;10.184;2024-03-08T01:32:46;23.50;;;11.87;;
7519;SDS011;3801;48.876;10.184;2024-03-08T01:37:51;13.27;;;9.03;;
7519;SDS011;3801;48.876;10.184;2024-03-08T01:42:55;20.20;;;11.80;;
7519;SDS011;3801;48.876;10.184;2024-03-08T01:47:58;26.97;;;14.83;;
7519;SDS011;3801;48.876;10.184;2024-03-08T01:53:03;19.93;;;10.33;;
7519;SDS011;3801;48.876;10.184;2024-03-08T01:58:09;19.10;;;9.63;;
7519;SDS011;3801;48.876;10.184;2024-03-08T02:03:12;24.67;;;12.73;;
7519;SDS011;3801;48.876;10.184;2024-03-08T02:08:17;20.87;;;11.77;;
7519;SDS011;3801;48.876;10.184;2024-03-08T02:13:21;25.37;;;14.20;;
7519;SDS011;3801;48.876;10.184;2024-03-08T02:18:26;24.13;;;14.33;;
7519;SDS011;3801;48.876;10.184;2024-03-08T02:23:31;31.13;;;16.27;;
7519;SDS011;3801;48.876;10.184;2024-03-08T02:28:36;22.37;;;12.50;;
7519;SDS011;3801;48.876;10.184;2024-03-08T02:33:41;25.63;;;14.93;;
7519;SDS011;3801;48.876;10.184;2024-03-08T02:38:46;24.13;;;13.27;;
7519;SDS011;3801;48.876;10.184;2024-03-08T02:43:49;25.10;;;13.77;;
7519;SDS011;3801;48.876;10.184;2024-03-08T02:48:53;27.40;;;15.17;;
7519;SDS011;3801;48.876;10.184;2024-03-08T02:53:58;30.10;;;15.07;;
7519;SDS011;3801;48.876;10.184;2024-03-08T02:59:02;27.30;;;15.17;;
7519;SDS011;3801;48.876;10.184;2024-03-08T03:04:06;26.77;;;14.07;;
7519;SDS011;3801;48.876;10.184;2024-03-08T03:09:10;26.77;;;14.60;;
7519;SDS011;3801;48.876;10.184;2024-03-08T03:14:14;30.23;;;14.97;;
7519;SDS011;3801;48.876;10.184;2024-03-08T03:19:17;30.80;;;16.00;;
7519;SDS011;3801;48.876;10.184;2024-03-08T03:24:24;23.37;;;11.63;;
7519;SDS011;3801;48.876;10.184;2024-03-08T03:29:27;30.30;;;16.60;;
7519;SDS011;3801;48.876;10.184;2024-03-08T03:34:32;31.37;;;16.87;;
7519;SDS011;3801;48.876;10.184;2024-03-08T03:39:39;16.73;;;9.17;;
7519;SDS011;3801;48.876;10.184;2024-03-08T03:44:50;29.07;;;15.37;;
7519;SDS011;3801;48.876;10.184;2024-03-08T03:49:54;32.87;;;17.43;;
7519;SDS011;3801;48.876;10.184;2024-03-08T03:55:06;30.07;;;16.23;;
7519;SDS011;3801;48.876;10.184;2024-03-08T04:00:11;27.97;;;14.83;;
7519;SDS011;3801;48.876;10.184;2024-03-08T04:05:15;25.93;;;13.37;;
7519;SDS011;3801;48.876;10.184;2024-03-08T04:10:21;20.13;;;10.73;;
7519;SDS011;3801;48.876;10.184;2024-03-08T04:15:25;22.93;;;12.13;;
7519;SDS011;3801;48.876;10.184;2024-03-08T04:20:28;37.53;;;16.73;;
7519;SDS011;3801;48.876;10.184;2024-03-08T04:25:33;25.07;;;13.37;;
7519;SDS011;3801;48.876;10.184;2024-03-08T04:30:37;30.23;;;15.17;;
7519;SDS011;3801;48.876;10.184;2024-03-08T04:35:41;29.63;;;15.57;;
7519;SDS011;3801;48.876;10.184;2024-03-08T04:40:49;29.80;;;15.43;;
7519;SDS011;3801;48.876;10.184;2024-03-08T04:45:53;29.50;;;14.63;;
7519;SDS011;3801;48.876;10.184;2024-03-08T04:50:57;33.97;;;17.60;;
7519;SDS011;3801;48.876;10.184;2024-03-08T04:56:03;18.97;;;12.07;;
7519;SDS011;3801;48.876;10.184;2024-03-08T05:01:08;18.87;;;12.37;;
7519;SDS011;3801;48.876;10.184;2024-03-08T05:06:12;29.20;;;17.73;;
7519;SDS011;3801;48.876;10.184;2024-03-08T05:11:18;30.67;;;17.20;;
7519;SDS011;3801;48.876;10.184;2024-03-08T05:16:21;28.10;;;15.43;;
7519;SDS011;3801;48.876;10.184;2024-03-08T05:21:26;25.63;;;13.63;;
7519;SDS011;3801;48.876;10.184;2024-03-08T05:26:33;22.17;;;11.57;;
7519;SDS011;3801;48.876;10.184;2024-03-08T05:31:38;40.03;;;19.93;;
7519;SDS011;3801;48.876;10.184;2024-03-08T05:36:45;48.03;;;24.10;;
7519;SDS011;3801;48.876;10.184;2024-03-08T05:41:51;20.47;;;11.10;;
7519;SDS011;3801;48.876;10.184;2024-03-08T05:46:55;31.60;;;17.63;;
7519;SDS011;3801;48.876;10.184;2024-03-08T05:51:59;19.10;;;11.17;;
7519;SDS011;3801;48.876;10.184;2024-03-08T05:57:03;24.90;;;13.87;;
7519;SDS011;3801;48.876;10.184;2024-03-08T06:02:08;33.77;;;17.83;;
7519;SDS011;3801;48.876;10.184;2024-03-08T06:07:18;26.83;;;14.83;;
7519;SDS011;3801;48.876;10.184;2024-03-08T06:12:34;29.20;;;15.90;;
7519;SDS011;3801;48.876;10.184;2024-03-08T06:17:42;18.80;;;11.53;;
7519;SDS011;3801;48.876;10.184;2024-03-08T06:22:46;25.87;;;14.73;;
7519;SDS011;3801;48.876;10.184;2024-03-08T06:27:52;28.30;;;16.77;;
7519;SDS011;3801;48.876;10.184;2024-03-08T06:32:55;28.70;;;15.13;;
7519;SDS011;3801;48.876;10.184;2024-03-08T06:37:59;21.67;;;11.70;;
7519;SDS011;3801;48.876;10.184;2024-03-08T06:43:05;22.23;;;11.90;;
7519;SDS011;3801;48.876;10.184;2024-03-08T06:48:08;28.60;;;16.40;;
7519;SDS011;3801;48.876;10.184;2024-03-08T06:53:13;25.83;;;14.67;;
7519;SDS011;3801;48.876;10.184;2024-03-08T06:58:21;22.20;;;11.37;;
7519;SDS011;3801;48.876;10.184;2024-03-08T07:03:24;22.23;;;11.53;;
7519;SDS011;3801;48.876;10.184;2024-03-08T07:08:29;28.83;;;13.67;;
7519;SDS011;3801;48.876;10.184;2024-03-08T07:13:34;28.57;;;15.47;;
7519;SDS011;3801;48.876;10.184;2024-03-08T07:18:37;24.83;;;13.07;;
7519;SDS011;3801;48.876;10.184;2024-03-08T07:23:45;20.10;;;11.43;;
7519;SDS011;3801;48.876;10.184;2024-03-08T07:29:01;14.50;;;8.77;;
7519;SDS011;3801;48.876;10.184;2024-03-08T07:34:05;21.87;;;12.47;;
7519;SDS011;3801;48.876;10.184;2024-03-08T07:39:09;23.57;;;14.00;;
7519;SDS011;3801;48.876;10.184;2024-03-08T07:44:15;23.67;;;10.57;;
7519;SDS011;3801;48.876;10.184;2024-03-08T07:49:19;28.13;;;15.43;;
7519;SDS011;3801;48.876;10.184;2024-03-08T07:54:23;29.63;;;15.37;;
7519;SDS011;3801;48.876;10.184;2024-03-08T07:59:29;32.70;;;16.50;;
7519;SDS011;3801;48.876;10.184;2024-03-08T08:04:33;16.23;;;8.80;;
7519;SDS011;3801;48.876;10.184;2024-03-08T08:09:36;34.33;;;17.77;;
7519;SDS011;3801;48.876;10.184;2024-03-08T08:14:41;40.13;;;20.30;;
7519;SDS011;3801;48.876;10.184;2024-03-08T08:19:46;24.57;;;13.30;;
7519;SDS011;3801;48.876;10.184;2024-03-08T08:24:50;31.27;;;16.50;;
7519;SDS011;3801;48.876;10.184;2024-03-08T08:29:56;35.07;;;17.67;;
7519;SDS011;3801;48.876;10.184;2024-03-08T08:35:00;21.03;;;11.77;;
7519;SDS011;3801;48.876;10.184;2024-03-08T08:40:05;19.33;;;10.90;;
7519;SDS011;3801;48.876;10.184;2024-03-08T08:45:13;29.10;;;14.40;;
7519;SDS011;3801;48.876;10.184;2024-03-08T08:50:22;22.23;;;10.80;;
7519;SDS011;3801;48.876;10.184;2024-03-08T08:55:27;29.63;;;16.17;;
7519;SDS011;3801;48.876;10.184;2024-03-08T09:00:34;32.87;;;17.33;;
7519;SDS011;3801;48.876;10.184;2024-03-08T09:05:38;29.10;;;15.17;;
7519;SDS011;3801;48.876;10.184;2024-03-08T09:10:47;40.50;;;20.07;;
7519;SDS011;3801;48.876;10.184;2024-03-08T09:15:54;35.90;;;18.20;;
7519;SDS011;3801;48.876;10.184;2024-03-08T09:20:58;32.63;;;17.40;;
7519;SDS011;3801;48.876;10.184;2024-03-08T09:26:02;33.77;;;18.40;;
7519;SDS011;3801;48.876;10.184;2024-03-08T09:31:15;31.03;;;16.87;;
7519;SDS011;3801;48.876;10.184;2024-03-08T09:36:19;27.23;;;13.80;;
7519;SDS011;3801;48.876;10.184;2024-03-08T09:41:24;27.30;;;15.60;;
7519;SDS011;3801;48.876;10.184;2024-03-08T09:46:29;31.27;;;17.67;;
7519;SDS011;3801;48.876;10.184;2024-03-08T09:51:33;26.47;;;15.37;;
7519;SDS011;3801;48.876;10.184;2024-03-08T09:56:37;29.33;;;15.80;;
7519;SDS011;3801;48.876;10.184;2024-03-08T10:01:44;30.30;;;17.17;;
7519;SDS011;3801;48.876;10.184;2024-03-08T10:06:48;25.13;;;14.90;;
7519;SDS011;3801;48.876;10.184;2024-03-08T10:11:53;30.47;;;16.50;;
7519;SDS011;3801;48.876;10.184;2024-03-08T10:16:58;26.10;;;15.00;;
7519;SDS011;3801;48.876;10.184;2024-03-08T10:22:05;24.27;;;14.43;;
7519;SDS011;3801;48.876;10.184;2024-03-08T10:27:10;22.93;;;13.60;;
7519;SDS011;3801;48.876;10.184;2024-03-08T10:32:16;24.50;;;15.03;;
7519;SDS011;3801;48.876;10.184;2024-03-08T10:37:21;26.40;;;15.80;;
7519;SDS011;3801;48.876;10.184;2024-03-08T10:42:27;23.77;;;11.67;;
7519;SDS011;3801;48.876;10.184;2024-03-08T10:47:35;26.73;;;17.00;;
7519;SDS011;3801;48.876;10.184;2024-03-08T10:52:47;25.67;;;16.37;;
7519;SDS011;3801;48.876;10.184;2024-03-08T10:57:52;25.73;;;13.93;;
7519;SDS011;3801;48.876;10.184;2024-03-08T11:02:57;19.90;;;10.20;;
7519;SDS011;3801;48.876;10.184;2024-03-08T11:08:03;24.10;;;15.10;;
7519;SDS011;3801;48.876;10.184;2024-03-08T11:13:17;20.53;;;12.17;;
7519;SDS011;3801;48.876;10.184;2024-03-08T11:18:37;22.73;;;15.23;;
7519;SDS011;3801;48.876;10.184;2024-03-08T11:23:41;26.30;;;15.87;;
7519;SDS011;3801;48.876;10.184;2024-03-08T11:28:49;22.93;;;13.93;;
7519;SDS011;3801;48.876;10.184;2024-03-08T11:33:57;22.13;;;12.60;;
7519;SDS011;3801;48.876;10.184;2024-03-08T11:39:01;24.20;;;14.67;;
7519;SDS011;3801;48.876;10.184;2024-03-08T11:44:11;22.63;;;14.83;;
7519;SDS011;3801;48.876;10.184;2024-03-08T11:49:19;22.87;;;15.27;;
7519;SDS011;3801;48.876;10.184;2024-03-08T11:54:23;22.07;;;13.03;;
7519;SDS011;3801;48.876;10.184;2024-03-08T11:59:27;23.13;;;14.73;;
7519;SDS011;3801;48.876;10.184;2024-03-08T12:04:32;26.10;;;16.03;;
7519;SDS011;3801;48.876;10.184;2024-03-08T12:09:38;25.43;;;15.30;;
7519;SDS011;3801;48.876;10.184;2024-03-08T12:14:42;20.93;;;13.90;;
7519;SDS011;3801;48.876;10.184;2024-03-08T12:19:48;27.13;;;16.80;;
7519;SDS011;3801;48.876;10.184;2024-03-08T12:25:02;23.93;;;15.23;;
7519;SDS011;3801;48.876;10.184;2024-03-08T12:30:17;23.37;;;14.83;;
7519;SDS011;3801;48.876;10.184;2024-03-08T12:35:23;23.50;;;14.20;;
7519;SDS011;3801;48.876;10.184;2024-03-08T12:40:28;23.07;;;14.57;;
7519;SDS011;3801;48.876;10.184;2024-03-08T12:45:32;24.40;;;13.20;;
7519;SDS011;3801;48.876;10.184;2024-03-08T12:50:37;24.57;;;14.87;;
7519;SDS011;3801;48.876;10.184;2024-03-08T12:55:41;23.30;;;14.87;;
7519;SDS011;3801;48.876;10.184;2024-03-08T13:00:46;21.50;;;12.90;;
7519;SDS011;3801;48.876;10.184;2024-03-08T13:05:56;22.20;;;14.33;;
7519;SDS011;3801;48.876;10.184;2024-03-08T13:11:00;21.53;;;14.33;;
7519;SDS011;3801;48.876;10.184;2024-03-08T13:16:06;24.47;;;13.83;;
7519;SDS011;3801;48.876;10.184;2024-03-08T13:21:13;23.03;;;14.17;;
7519;SDS011;3801;48.876;10.184;2024-03-08T13:26:16;23.07;;;12.93;;
7519;SDS011;3801;48.876;10.184;2024-03-08T13:31:21;22.03;;;13.33;;
7519;SDS011;3801;48.876;10.184;2024-03-08T13:41:58;22.57;;;13.27;;
7519;SDS011;3801;48.876;10.184;2024-03-08T13:47:01;21.40;;;13.33;;
7519;SDS011;3801;48.876;10.184;2024-03-08T13:52:07;21.87;;;13.10;;
7519;SDS011;3801;48.876;10.184;2024-03-08T13:57:13;15.57;;;9.17;;
7519;SDS011;3801;48.876;10.184;2024-03-08T14:02:19;18.80;;;11.97;;
7519;SDS011;3801;48.876;10.184;2024-03-08T14:07:25;20.23;;;11.70;;
7519;SDS011;3801;48.876;10.184;2024-03-08T14:12:32;17.63;;;11.63;;
7519;SDS011;3801;48.876;10.184;2024-03-08T14:17:37;18.23;;;11.80;;
7519;SDS011;3801;48.876;10.184;2024-03-08T14:22:40;19.53;;;11.00;;
7519;SDS011;3801;48.876;10.184;2024-03-08T14:27:46;16.30;;;9.57;;
7519;SDS011;3801;48.876;10.184;2024-03-08T14:32:51;16.70;;;11.43;;
7519;SDS011;3801;48.876;10.184;2024-03-08T14:37:56;17.70;;;11.90;;
7519;SDS011;3801;48.876;10.184;2024-03-08T14:43:02;15.77;;;9.87;;
7519;SDS011;3801;48.876;10.184;2024-03-08T14:48:08;18.63;;;11.13;;
7519;SDS011;3801;48.876;10.184;2024-03-08T14:53:13;18.57;;;11.77;;
7519;SDS011;3801;48.876;10.184;2024-03-08T14:58:20;16.77;;;10.90;;
7519;SDS011;3801;48.876;10.184;2024-03-08T15:03:25;17.63;;;11.00;;
7519;SDS011;3801;48.876;10.184;2024-03-08T15:08:29;32.47;;;18.63;;
7519;SDS011;3801;48.876;10.184;2024-03-08T15:13:36;18.87;;;11.40;;
7519;SDS011;3801;48.876;10.184;2024-03-08T15:18:44;19.57;;;12.07;;
7519;SDS011;3801;48.876;10.184;2024-03-08T15:23:54;19.63;;;11.90;;
7519;SDS011;3801;48.876;10.184;2024-03-08T15:28:59;18.73;;;12.80;;
7519;SDS011;3801;48.876;10.184;2024-03-08T15:34:04;16.70;;;10.53;;
7519;SDS011;3801;48.876;10.184;2024-03-08T15:39:09;17.67;;;11.00;;
7519;SDS011;3801;48.876;10.184;2024-03-08T15:44:15;16.67;;;11.10;;
7519;SDS011;3801;48.876;10.184;2024-03-08T15:49:19;11.73;;;6.47;;
7519;SDS011;3801;48.876;10.184;2024-03-08T15:54:23;15.23;;;9.93;;
7519;SDS011;3801;48.876;10.184;2024-03-08T15:59:29;12.00;;;8.80;;
7519;SDS011;3801;48.876;10.184;2024-03-08T16:04:38;12.67;;;7.57;;
7519;SDS011;3801;48.876;10.184;2024-03-08T16:09:41;12.53;;;7.73;;
7519;SDS011;3801;48.876;10.184;2024-03-08T16:14:46;14.10;;;9.07;;
7519;SDS011;3801;48.876;10.184;2024-03-08T16:19:50;14.20;;;8.37;;
7519;SDS011;3801;48.876;10.184;2024-03-08T16:24:54;13.87;;;10.07;;
7519;SDS011;3801;48.876;10.184;2024-03-08T16:30:01;18.27;;;9.33;;
7519;SDS011;3801;48.876;10.184;2024-03-08T16:35:10;14.90;;;9.03;;
7519;SDS011;3801;48.876;10.184;2024-03-08T16:40:14;14.07;;;9.17;;
7519;SDS011;3801;48.876;10.184;2024-03-08T16:45:21;15.80;;;9.07;;
7519;SDS011;3801;48.876;10.184;2024-03-08T16:50:25;13.03;;;8.47;;
7519;SDS011;3801;48.876;10.184;2024-03-08T16:55:34;14.00;;;9.33;;
7519;SDS011;3801;48.876;10.184;2024-03-08T17:00:38;15.50;;;10.03;;
7519;SDS011;3801;48.876;10.184;2024-03-08T17:05:43;13.83;;;9.17;;
7519;SDS011;3801;48.876;10.184;2024-03-08T17:10:56;15.50;;;9.43;;
7519;SDS011;3801;48.876;10.184;2024-03-08T17:16:01;15.07;;;8.90;;
7519;SDS011;3801;48.876;10.184;2024-03-08T17:21:05;15.97;;;9.43;;
7519;SDS011;3801;48.876;10.184;2024-03-08T17:26:15;11.63;;;7.50;;
7519;SDS011;3801;48.876;10.184;2024-03-08T17:31:21;12.57;;;7.57;;
7519;SDS011;3801;48.876;10.184;2024-03-08T17:36:25;13.70;;;7.83;;
7519;SDS011;3801;48.876;10.184;2024-03-08T17:41:29;14.90;;;9.23;;
7519;SDS011;3801;48.876;10.184;2024-03-08T17:46:34;11.37;;;7.40;;
7519;SDS011;3801;48.876;10.184;2024-03-08T17:51:39;14.33;;;9.37;;
7519;SDS011;3801;48.876;10.184;2024-03-08T17:56:43;10.97;;;7.17;;
7519;SDS011;3801;48.876;10.184;2024-03-08T18:01:48;12.67;;;8.83;;
7519;SDS011;3801;48.876;10.184;2024-03-08T18:06:52;13.83;;;8.43;;
7519;SDS011;3801;48.876;10.184;2024-03-08T18:11:55;11.70;;;8.27;;
7519;SDS011;3801;48.876;10.184;2024-03-08T18:17:02;14.07;;;8.13;;
7519;SDS011;3801;48.876;10.184;2024-03-08T18:22:08;10.90;;;7.33;;
7519;SDS011;3801;48.876;10.184;2024-03-08T18:27:13;8.50;;;5.63;;
7519;SDS011;3801;48.876;10.184;2024-03-08T18:32:19;20.67;;;11.77;;
7519;SDS011;3801;48.876;10.184;2024-03-08T18:37:26;9.57;;;6.83;;
7519;SDS011;3801;48.876;10.184;2024-03-08T18:42:30;13.00;;;8.30;;
7519;SDS011;3801;48.876;10.184;2024-03-08T18:47:34;14.23;;;8.33;;
7519;SDS011;3801;48.876;10.184;2024-03-08T18:52:39;12.00;;;8.67;;
7519;SDS011;3801;48.876;10.184;2024-03-08T18:57:43;11.80;;;8.23;;
7519;SDS011;3801;48.876;10.184;2024-03-08T19:02:48;10.40;;;6.10;;
7519;SDS011;3801;48.876;10.184;2024-03-08T19:07:53;13.47;;;7.93;;
7519;SDS011;3801;48.876;10.184;2024-03-08T19:12:58;10.33;;;7.00;;
7519;SDS011;3801;48.876;10.184;2024-03-08T19:18:03;12.20;;;7.93;;
7519;SDS011;3801;48.876;10.184;2024-03-08T19:23:10;9.03;;;5.40;;
7519;SDS011;3801;48.876;10.184;2024-03-08T19:28:15;10.70;;;6.80;;
7519;SDS011;3801;48.876;10.184;2024-03-08T19:33:21;12.53;;;7.70;;
7519;SDS011;3801;48.876;10.184;2024-03-08T19:38:24;12.47;;;8.37;;
7519;SDS011;3801;48.876;10.184;2024-03-08T19:43:32;13.93;;;9.13;;
7519;SDS011;3801;48.876;10.184;2024-03-08T19:48:38;12.47;;;8.20;;
7519;SDS011;3801;48.876;10.184;2024-03-08T19:53:44;9.20;;;6.23;;
7519;SDS011;3801;48.876;10.184;2024-03-08T19:58:50;11.70;;;7.43;;
7519;SDS011;3801;48.876;10.184;2024-03-08T20:03:59;45.43;;;20.37;;
7519;SDS011;3801;48.876;10.184;2024-03-08T20:09:03;19.13;;;10.67;;
7519;SDS011;3801;48.876;10.184;2024-03-08T20:14:07;18.40;;;10.57;;
7519;SDS011;3801;48.876;10.184;2024-03-08T20:19:14;53.60;;;32.27;;
7519;SDS011;3801;48.876;10.184;2024-03-08T20:24:18;15.17;;;9.00;;
7519;SDS011;3801;48.876;10.184;2024-03-08T20:29:22;10.87;;;7.23;;
7519;SDS011;3801;48.876;10.184;2024-03-08T20:34:27;11.30;;;6.40;;
7519;SDS011;3801;48.876;10.184;2024-03-08T20:39:31;12.27;;;6.47;;
7519;SDS011;3801;48.876;10.184;2024-03-08T20:44:35;9.23;;;6.30;;
7519;SDS011;3801;48.876;10.184;2024-03-08T20:49:40;11.33;;;7.00;;
7519;SDS011;3801;48.876;10.184;2024-03-08T20:54:45;11.70;;;7.23;;
7519;SDS011;3801;48.876;10.184;2024-03-08T20:59:50;7.53;;;4.93;;
7519;SDS011;3801;48.876;10.184;2024-03-08T21:04:55;11.07;;;6.27;;
7519;SDS011;3801;48.876;10.184;2024-03-08T21:09:59;11.30;;;6.77;;
7519;SDS011;3801;48.876;10.184;2024-03-08T21:15:03;11.50;;;7.47;;
7519;SDS011;3801;48.876;10.184;2024-03-08T21:20:08;10.20;;;6.87;;
7519;SDS011;3801;48.876;10.184;2024-03-08T21:25:12;13.70;;;8.17;;
7519;SDS011;3801;48.876;10.184;2024-03-08T21:30:17;10.63;;;7.27;;
7519;SDS011;3801;48.876;10.184;2024-03-08T21:35:24;10.87;;;6.57;;
7519;SDS011;3801;48.876;10.184;2024-03-08T21:40:28;12.60;;;6.97;;
7519;SDS011;3801;48.876;10.184;2024-03-08T21:45:33;11.93;;;6.53;;
7519;SDS011;3801;48.876;10.184;2024-03-08T21:50:40;10.40;;;6.80;;
7519;SDS011;3801;48.876;10.184;2024-03-08T21:55:43;11.20;;;7.10;;
7519;SDS011;3801;48.876;10.184;2024-03-08T22:00:47;12.53;;;8.00;;
7519;SDS011;3801;48.876;10.184;2024-03-08T22:05:52;9.73;;;6.53;;
7519;SDS011;3801;48.876;10.184;2024-03-08T22:10:56;10.53;;;7.20;;
7519;SDS011;3801;48.876;10.184;2024-03-08T22:16:01;9.27;;;4.93;;
7519;SDS011;3801;48.876;10.184;2024-03-08T22:21:06;12.87;;;7.27;;
7519;SDS011;3801;48.876;10.184;2024-03-08T22:26:10;10.60;;;6.20;;
7519;SDS011;3801;48.876;10.184;2024-03-08T22:31:16;11.67;;;7.77;;
7519;SDS011;3801;48.876;10.184;2024-03-08T22:36:23;16.23;;;7.27;;
7519;SDS011;3801;48.876;10.184;2024-03-08T22:41:26;13.27;;;7.70;;
7519;SDS011;3801;48.876;10.184;2024-03-08T22:46:32;16.00;;;8.53;;
7519;SDS011;3801;48.876;10.184;2024-03-08T22:51:36;14.27;;;8.67;;
7519;SDS011;3801;48.876;10.184;2024-03-08T22:56:40;31.73;;;17.80;;
7519;SDS011;3801;48.876;10.184;2024-03-08T23:01:43;14.43;;;8.43;;
7519;SDS011;3801;48.876;10.184;2024-03-08T23:06:48;13.03;;;8.63;;
7519;SDS011;3801;48.876;10.184;2024-03-08T23:11:52;14.57;;;7.23;;
7519;SDS011;3801;48.876;10.184;2024-03-08T23:16:55;13.70;;;8.27;;
7519;SDS011;3801;48.876;10.184;2024-03-08T23:22:03;19.17;;;10.80;;
7519;SDS011;3801;48.876;10.184;2024-03-08T23:27:07;13.63;;;8.00;;
7519;SDS011;3801;48.876;10.184;2024-03-08T23:32:10;20.77;;;11.53;;
7519;SDS011;3801;48.876;10.184;2024-03-08T23:37:15;22.83;;;10.57;;
7519;SDS011;3801;48.876;10.184;2024-03-08T23:42:18;21.63;;;12.13;;
7519;SDS011;3801;48.876;10.184;2024-03-08T23:47:23;26.93;;;13.20;;
7519;SDS011;3801;48.876;10.184;2024-03-08T23:52:27;18.10;;;9.90;;
7519;SDS011;3801;48.876;10.184;2024-03-08T23:57:38;18.60;;;10.67;;
